createdAt,value
2019-02-28T00:01:57.116Z,15.85
2019-02-28T00:04:32.115Z,15.25
2019-02-28T00:06:58.176Z,12.53
2019-02-28T00:09:27.817Z,12.28
2019-02-28T00:11:57.496Z,13.25
2019-02-28T00:14:27.849Z,13.30
2019-02-28T00:16:57.969Z,13.60
2019-02-28T00:19:27.651Z,13.75
2019-02-28T00:21:57.392Z,11.53
2019-02-28T00:24:29.812Z,13.72
2019-02-28T00:26:58.448Z,12.98
2019-02-28T00:29:28.024Z,12.85
2019-02-28T00:31:57.782Z,12.35
2019-02-28T00:34:27.359Z,13.65
2019-02-28T00:36:57.168Z,12.55
2019-02-28T00:39:26.792Z,12.28
2019-02-28T00:41:56.435Z,10.95
2019-02-28T00:44:30.458Z,11.38
2019-02-28T00:46:57.442Z,13.10
2019-02-28T00:49:27.078Z,13.00
2019-02-28T00:51:56.868Z,13.25
2019-02-28T00:54:26.488Z,10.88
2019-02-28T00:56:56.212Z,13.40
2019-02-28T00:59:25.792Z,11.60
2019-02-28T01:01:55.419Z,14.10
2019-02-28T01:04:25.105Z,11.20
2019-02-28T01:06:54.737Z,11.15
2019-02-28T01:09:27.102Z,10.90
2019-02-28T01:11:55.888Z,12.85
2019-02-28T01:14:25.594Z,9.08
2019-02-28T01:16:55.207Z,10.35
2019-02-28T01:19:24.916Z,10.32
2019-02-28T01:21:55.378Z,14.30
2019-02-28T01:24:25.873Z,10.78
2019-02-28T01:26:55.575Z,12.13
2019-02-28T01:29:25.210Z,10.50
2019-02-28T01:31:54.891Z,10.28
2019-02-28T01:34:24.416Z,11.45
2019-02-28T01:36:54.173Z,10.45
2019-02-28T01:39:23.825Z,11.33
2019-02-28T01:41:53.568Z,9.90
2019-02-28T01:44:23.437Z,10.13
2019-02-28T01:46:53.520Z,9.90
2019-02-28T01:49:25.962Z,9.58
2019-02-28T01:51:54.954Z,10.45
2019-02-28T01:54:25.152Z,8.55
2019-02-28T01:56:56.163Z,10.28
2019-02-28T01:59:25.816Z,10.15
2019-02-28T02:01:55.522Z,10.98
2019-02-28T02:04:25.173Z,9.88
2019-02-28T02:06:59.677Z,10.32
2019-02-28T02:09:27.760Z,9.18
2019-02-28T02:11:59.044Z,9.03
2019-02-28T02:14:28.868Z,12.50
2019-02-28T02:17:01.097Z,9.73
2019-02-28T02:19:30.015Z,9.25
2019-02-28T02:21:59.662Z,12.43
2019-02-28T02:24:29.291Z,9.55
2019-02-28T02:26:58.990Z,10.38
2019-02-28T02:29:28.714Z,8.73
2019-02-28T02:32:01.152Z,9.68
2019-02-28T02:34:29.931Z,9.88
2019-02-28T02:36:59.681Z,9.95
2019-02-28T02:39:29.306Z,9.65
2019-02-28T02:41:58.991Z,7.80
2019-02-28T02:44:31.755Z,10.95
2019-02-28T02:47:00.161Z,11.53
2019-02-28T02:49:29.799Z,10.98
2019-02-28T02:51:59.469Z,8.65
2019-02-28T02:54:29.233Z,8.45
2019-02-28T02:56:58.810Z,10.03
2019-02-28T02:59:28.498Z,7.60
2019-02-28T03:01:58.121Z,7.75
2019-02-28T03:04:27.832Z,8.18
2019-02-28T03:06:57.433Z,8.28
2019-02-28T03:09:27.145Z,8.03
2019-02-28T03:11:57.716Z,8.50
2019-02-28T03:14:28.322Z,8.33
2019-02-28T03:16:57.913Z,7.92
2019-02-28T03:19:33.224Z,8.53
2019-02-28T03:21:58.992Z,8.58
2019-02-28T03:24:28.687Z,8.63
2019-02-28T03:26:58.500Z,8.43
2019-02-28T03:29:28.199Z,7.45
2019-02-28T03:31:59.639Z,7.72
2019-02-28T03:34:29.420Z,9.85
2019-02-28T03:36:59.100Z,9.03
2019-02-28T03:39:28.792Z,8.83
2019-02-28T03:41:58.397Z,8.20
2019-02-28T03:44:28.030Z,9.83
2019-02-28T03:46:57.719Z,7.72
2019-02-28T03:49:27.335Z,6.95
2019-02-28T03:51:57.047Z,7.08
2019-02-28T03:54:28.840Z,6.70
2019-02-28T03:56:58.102Z,10.75
2019-02-28T03:59:27.720Z,8.65
2019-02-28T04:01:57.428Z,10.03
2019-02-28T04:04:27.123Z,7.50
2019-02-28T04:06:56.810Z,7.30
2019-02-28T04:09:26.543Z,8.93
2019-02-28T04:11:56.057Z,7.50
2019-02-28T04:14:28.508Z,8.38
2019-02-28T04:16:57.255Z,9.05
2019-02-28T04:19:26.931Z,7.67
2019-02-28T04:21:56.570Z,7.42
2019-02-28T04:24:26.248Z,6.92
2019-02-28T04:26:55.934Z,7.80
2019-02-28T04:29:29.829Z,7.08
2019-02-28T04:31:58.062Z,9.85
2019-02-28T04:34:27.878Z,10.70
2019-02-28T04:36:57.670Z,7.25
2019-02-28T04:39:27.207Z,7.30
2019-02-28T04:41:56.819Z,7.42
2019-02-28T04:44:26.490Z,7.12
2019-02-28T04:46:56.223Z,7.70
2019-02-28T04:49:26.015Z,8.78
2019-02-28T04:51:55.798Z,6.87
2019-02-28T04:54:27.816Z,6.70
2019-02-28T04:56:56.895Z,6.92
2019-02-28T04:59:26.501Z,6.15
2019-02-28T05:01:56.238Z,7.62
2019-02-28T05:04:26.075Z,7.12
2019-02-28T05:06:55.918Z,7.42
2019-02-28T05:09:25.642Z,7.97
2019-02-28T05:11:55.475Z,5.50
2019-02-28T05:14:25.175Z,8.80
2019-02-28T05:16:54.883Z,8.25
2019-02-28T05:19:24.516Z,9.50
2019-02-28T05:21:56.237Z,21.50
2019-02-28T05:24:25.897Z,6.12
2019-02-28T05:26:57.334Z,8.40
2019-02-28T05:29:27.381Z,6.47
2019-02-28T05:31:58.134Z,12.55
2019-02-28T05:34:28.744Z,7.53
2019-02-28T05:36:58.579Z,10.28
2019-02-28T05:39:31.006Z,8.68
2019-02-28T05:41:59.888Z,14.45
2019-02-28T05:44:29.609Z,7.10
2019-02-28T05:46:59.399Z,6.97
2019-02-28T05:49:29.111Z,6.70
2019-02-28T05:51:59.784Z,6.85
2019-02-28T05:54:29.480Z,6.47
2019-02-28T05:56:59.293Z,7.85
2019-02-28T05:59:28.905Z,8.65
2019-02-28T06:01:58.589Z,8.70
2019-02-28T06:04:28.303Z,13.78
2019-02-28T06:06:58.015Z,17.05
2019-02-28T06:09:27.763Z,16.62
2019-02-28T06:11:57.356Z,13.78
2019-02-28T06:14:27.791Z,14.65
2019-02-28T06:16:57.499Z,15.48
2019-02-28T06:19:27.095Z,17.23
2019-02-28T06:21:59.477Z,16.17
2019-02-28T06:24:28.174Z,18.30
2019-02-28T06:26:57.852Z,15.65
2019-02-28T06:29:27.556Z,20.32
2019-02-28T06:31:57.214Z,22.48
2019-02-28T06:34:26.882Z,13.22
2019-02-28T06:36:56.565Z,17.90
2019-02-28T06:39:27.577Z,20.08
2019-02-28T06:41:57.473Z,18.82
2019-02-28T06:44:27.757Z,15.68
2019-02-28T06:46:57.413Z,14.38
2019-02-28T06:49:26.997Z,15.98
2019-02-28T06:51:56.742Z,11.45
2019-02-28T06:54:26.349Z,15.43
2019-02-28T06:56:55.934Z,11.48
2019-02-28T06:59:25.623Z,12.35
2019-02-28T07:01:57.575Z,19.25
2019-02-28T07:04:26.793Z,18.20
2019-02-28T07:06:56.538Z,10.35
2019-02-28T07:09:26.214Z,14.58
2019-02-28T07:11:55.928Z,12.58
2019-02-28T07:14:25.653Z,13.45
2019-02-28T07:16:55.268Z,10.43
2019-02-28T07:19:26.238Z,14.43
2019-02-28T07:21:56.337Z,16.77
2019-02-28T07:24:26.493Z,12.82
2019-02-28T07:26:56.260Z,13.10
2019-02-28T07:29:25.983Z,10.88
2019-02-28T07:32:00.034Z,12.18
2019-02-28T07:34:27.040Z,11.05
2019-02-28T07:36:56.822Z,11.20
2019-02-28T07:39:26.550Z,11.85
2019-02-28T07:41:58.796Z,10.38
2019-02-28T07:44:27.702Z,14.13
2019-02-28T07:46:57.325Z,13.48
2019-02-28T07:49:27.065Z,14.03
2019-02-28T07:51:57.223Z,13.53
2019-02-28T07:54:27.883Z,13.10
2019-02-28T07:56:57.550Z,10.10
2019-02-28T07:59:27.189Z,10.53
2019-02-28T08:01:59.889Z,10.72
2019-02-28T08:04:28.461Z,16.25
2019-02-28T08:06:58.067Z,12.93
2019-02-28T08:09:29.731Z,13.28
2019-02-28T08:11:59.486Z,16.12
2019-02-28T08:14:29.259Z,12.93
2019-02-28T08:16:58.949Z,12.05
2019-02-28T08:19:28.664Z,22.73
2019-02-28T08:21:59.369Z,12.35
2019-02-28T08:24:29.016Z,12.43
2019-02-28T08:26:58.829Z,20.92
2019-02-28T08:29:28.571Z,11.73
2019-02-28T08:31:58.264Z,10.72
2019-02-28T08:34:27.978Z,11.90
2019-02-28T08:36:57.673Z,13.88
2019-02-28T08:39:27.450Z,9.68
2019-02-28T08:42:02.567Z,11.95
2019-02-28T08:44:29.568Z,8.85
2019-02-28T08:46:59.199Z,12.95
2019-02-28T08:49:29.008Z,9.03
2019-02-28T08:51:58.617Z,10.58
2019-02-28T08:54:28.325Z,7.83
2019-02-28T08:56:58.018Z,8.73
2019-02-28T08:59:27.729Z,9.10
2019-02-28T09:01:57.439Z,9.43
2019-02-28T09:04:27.075Z,10.65
2019-02-28T09:06:56.758Z,11.15
2019-02-28T09:09:26.386Z,9.33
2019-02-28T09:11:58.008Z,8.43
2019-02-28T09:14:27.446Z,6.75
2019-02-28T09:16:57.133Z,9.13
2019-02-28T09:19:26.772Z,11.03
2019-02-28T09:21:56.469Z,10.55
2019-02-28T09:24:26.167Z,7.80
2019-02-28T09:26:55.895Z,9.75
2019-02-28T09:29:25.614Z,9.55
2019-02-28T09:31:56.225Z,7.17
2019-02-28T09:34:26.130Z,8.53
2019-02-28T09:36:56.886Z,10.28
2019-02-28T09:39:26.500Z,6.67
2019-02-28T09:41:56.212Z,7.53
2019-02-28T09:44:26.044Z,8.15
2019-02-28T09:46:55.641Z,6.45
2019-02-28T09:49:25.360Z,7.42
2019-02-28T09:51:54.953Z,7.22
2019-02-28T09:54:25.530Z,7.10
2019-02-28T09:56:55.178Z,7.03
2019-02-28T09:59:24.835Z,6.83
2019-02-28T10:02:01.112Z,9.60
2019-02-28T10:04:27.361Z,6.35
2019-02-28T10:06:57.307Z,8.25
2019-02-28T10:09:26.927Z,6.70
2019-02-28T10:11:56.614Z,7.65
2019-02-28T10:14:28.818Z,7.58
2019-02-28T10:16:57.783Z,7.12
2019-02-28T10:19:27.410Z,13.03
2019-02-28T10:21:57.148Z,6.85
2019-02-28T10:24:28.389Z,9.13
2019-02-28T10:26:58.261Z,6.47
2019-02-28T10:29:27.872Z,7.60
2019-02-28T10:31:57.683Z,8.10
2019-02-28T10:34:27.510Z,7.45
2019-02-28T10:36:57.313Z,6.40
2019-02-28T10:39:27.172Z,6.83
2019-02-28T10:41:57.086Z,5.87
2019-02-28T10:44:30.345Z,9.63
2019-02-28T10:46:58.298Z,5.47
2019-02-28T10:49:27.936Z,6.05
2019-02-28T10:51:57.549Z,6.60
2019-02-28T10:54:27.139Z,9.45
2019-02-28T10:56:56.845Z,6.65
2019-02-28T10:59:26.546Z,7.40
2019-02-28T11:01:56.257Z,7.58
2019-02-28T11:04:27.524Z,7.05
2019-02-28T11:06:59.303Z,156.52
2019-02-28T11:09:28.665Z,90.72
2019-02-28T11:11:58.479Z,29.07
2019-02-28T11:14:28.210Z,32.58
2019-02-28T11:16:59.429Z,42.55
2019-02-28T11:19:29.285Z,41.25
2019-02-28T11:22:01.535Z,41.33
2019-02-28T11:24:30.425Z,40.83
2019-02-28T11:27:00.079Z,35.88
2019-02-28T11:29:29.746Z,38.45
2019-02-28T11:31:59.374Z,34.58
2019-02-28T11:34:29.059Z,35.95
2019-02-28T11:36:58.679Z,35.43
2019-02-28T11:39:30.530Z,35.17
2019-02-28T11:41:59.626Z,34.92
2019-02-28T11:44:29.337Z,35.25
2019-02-28T11:46:59.037Z,33.92
2019-02-28T11:49:29.456Z,33.40
2019-02-28T11:51:59.199Z,34.10
2019-02-28T11:54:28.889Z,31.40
2019-02-28T11:57:02.510Z,31.57
2019-02-28T11:59:29.953Z,32.65
2019-02-28T12:01:59.596Z,33.23
2019-02-28T12:04:29.274Z,32.03
2019-02-28T12:07:00.841Z,28.65
2019-02-28T12:09:30.331Z,30.17
2019-02-28T12:11:59.971Z,27.40
2019-02-28T12:14:30.143Z,26.68
2019-02-28T12:16:59.796Z,32.67
2019-02-28T12:19:29.477Z,26.40
2019-02-28T12:22:00.175Z,24.35
2019-02-28T12:24:32.386Z,27.20
2019-02-28T12:27:01.280Z,25.52
2019-02-28T12:29:30.718Z,25.48
2019-02-28T12:32:00.315Z,29.05
2019-02-28T12:34:30.070Z,25.45
2019-02-28T12:36:59.991Z,23.87
2019-02-28T12:39:29.736Z,22.10
2019-02-28T12:42:00.304Z,22.93
2019-02-28T12:44:30.133Z,24.98
2019-02-28T12:46:59.782Z,20.68
2019-02-28T12:49:29.413Z,21.80
2019-02-28T12:51:59.097Z,19.92
2019-02-28T12:54:30.397Z,19.98
2019-02-28T12:57:00.162Z,20.37
2019-02-28T12:59:29.802Z,18.45
2019-02-28T13:01:59.438Z,19.40
2019-02-28T13:04:29.245Z,18.70
2019-02-28T13:06:59.527Z,18.65
2019-02-28T13:09:30.244Z,17.05
2019-02-28T13:11:59.973Z,18.12
2019-02-28T13:14:29.606Z,15.13
2019-02-28T13:16:59.176Z,18.67
2019-02-28T13:19:28.831Z,15.48
2019-02-28T13:21:58.562Z,17.15
2019-02-28T13:24:28.270Z,15.83
2019-02-28T13:26:57.920Z,16.80
2019-02-28T13:29:28.820Z,17.23
2019-02-28T13:32:01.433Z,15.18
2019-02-28T13:34:30.361Z,14.95
2019-02-28T13:37:02.951Z,17.25
2019-02-28T13:39:32.742Z,17.12
2019-02-28T13:42:04.334Z,14.70
2019-02-28T13:44:36.329Z,14.00
2019-02-28T13:47:09.882Z,14.98
2019-02-28T13:49:38.963Z,14.63
2019-02-28T13:52:08.985Z,15.78
2019-02-28T13:54:42.196Z,15.58
2019-02-28T13:57:10.548Z,17.37
2019-02-28T13:59:40.688Z,13.30
2019-02-28T14:02:10.768Z,13.00
2019-02-28T14:04:40.761Z,15.28
2019-02-28T14:07:10.760Z,14.28
2019-02-28T14:09:40.821Z,13.28
2019-02-28T14:12:10.649Z,14.07
2019-02-28T14:14:42.351Z,13.10
2019-02-28T14:17:12.961Z,14.93
2019-02-28T14:19:43.079Z,11.12
2019-02-28T14:22:13.501Z,12.98
2019-02-28T14:24:43.180Z,13.58
2019-02-28T14:27:12.940Z,10.20
2019-02-28T14:29:48.062Z,15.10
2019-02-28T14:32:14.084Z,14.28
2019-02-28T14:34:43.774Z,13.83
2019-02-28T14:37:13.392Z,12.68
2019-02-28T14:39:43.553Z,12.40
2019-02-28T14:42:13.409Z,11.53
2019-02-28T14:44:43.246Z,11.55
2019-02-28T14:47:12.948Z,13.25
2019-02-28T14:49:43.853Z,13.50
2019-02-28T14:52:14.397Z,12.45
2019-02-28T14:54:44.121Z,12.78
2019-02-28T14:57:16.600Z,10.90
2019-02-28T14:59:45.413Z,12.80
2019-02-28T15:02:15.101Z,12.33
2019-02-28T15:04:45.783Z,12.07
2019-02-28T15:07:15.761Z,12.78
2019-02-28T15:09:45.747Z,14.70
2019-02-28T15:12:15.882Z,11.20
2019-02-28T15:14:45.728Z,10.75
2019-02-28T15:17:15.814Z,11.93
2019-02-28T15:19:45.716Z,12.37
2019-02-28T15:22:21.051Z,9.93
2019-02-28T15:24:50.271Z,10.80
2019-02-28T15:27:20.167Z,10.72
2019-02-28T15:29:49.996Z,11.60
2019-02-28T15:32:19.912Z,12.90
2019-02-28T15:34:49.738Z,12.00
2019-02-28T15:37:19.636Z,11.00
2019-02-28T15:39:50.042Z,10.65
2019-02-28T15:42:20.605Z,9.70
2019-02-28T15:44:50.450Z,13.35
2019-02-28T15:47:23.216Z,11.00
2019-02-28T15:49:52.150Z,10.95
2019-02-28T15:52:21.908Z,9.88
2019-02-28T15:54:51.817Z,11.08
2019-02-28T15:57:21.648Z,11.75
2019-02-28T15:59:51.525Z,11.95
2019-02-28T16:02:21.334Z,12.25
2019-02-28T16:04:51.166Z,10.60
2019-02-28T16:07:21.084Z,10.93
2019-02-28T16:09:51.046Z,12.33
2019-02-28T16:12:21.022Z,33.83
2019-02-28T16:14:50.880Z,23.95
2019-02-28T16:17:20.740Z,18.12
2019-02-28T16:19:53.216Z,16.17
2019-02-28T16:22:22.239Z,16.82
2019-02-28T16:24:52.141Z,12.78
2019-02-28T16:27:21.971Z,14.20
2019-02-28T16:29:52.332Z,14.18
2019-02-28T16:32:23.557Z,14.73
2019-02-28T16:34:53.355Z,16.27
2019-02-28T16:37:23.241Z,15.28
2019-02-28T16:39:52.985Z,50.52
2019-02-28T16:42:22.589Z,106.20
2019-02-28T16:44:52.397Z,66.33
2019-02-28T16:47:24.375Z,41.40
2019-02-28T16:49:53.774Z,34.58
2019-02-28T16:52:23.653Z,37.40
2019-02-28T16:54:56.249Z,39.95
2019-02-28T16:57:25.022Z,36.30
2019-02-28T16:59:54.831Z,39.48
2019-02-28T17:02:26.417Z,37.35
2019-02-28T17:04:56.307Z,33.85
2019-02-28T17:07:26.210Z,36.63
2019-02-28T17:09:56.019Z,36.95
2019-02-28T17:12:43.557Z,32.88
2019-02-28T17:15:23.220Z,33.55
2019-02-28T17:18:00.692Z,34.23
2019-02-28T17:20:30.501Z,46.05
2019-02-28T17:23:01.420Z,34.43
2019-02-28T17:25:31.890Z,43.92
2019-02-28T17:28:15.315Z,40.25
2019-02-28T17:31:08.344Z,33.85
2019-02-28T17:33:38.865Z,35.73
2019-02-28T17:36:11.729Z,33.53
2019-02-28T17:38:40.300Z,54.00
2019-02-28T17:41:11.123Z,30.80
2019-02-28T17:43:41.174Z,31.30
2019-02-28T17:46:12.260Z,29.60
2019-02-28T17:49:31.967Z,29.85
2019-02-28T17:52:12.354Z,30.55
2019-02-28T17:55:32.440Z,32.45
2019-02-28T17:58:13.927Z,29.10
2019-02-28T18:01:05.742Z,28.70
2019-02-28T18:04:24.041Z,30.82
2019-02-28T18:07:54.219Z,31.95
2019-02-28T18:11:06.617Z,31.87
2019-02-28T18:13:56.522Z,34.90
2019-02-28T18:16:36.286Z,32.67
2019-02-28T18:19:37.031Z,26.87
2019-02-28T18:23:03.023Z,24.52
2019-02-28T18:25:40.934Z,26.95
2019-02-28T18:28:41.563Z,26.15
2019-02-28T18:31:19.292Z,26.85
2019-02-28T18:34:11.194Z,30.08
2019-02-28T18:36:43.387Z,23.35
2019-02-28T18:39:12.486Z,23.40
2019-02-28T18:41:43.190Z,23.90
2019-02-28T18:44:13.113Z,23.75
2019-02-28T18:46:42.923Z,28.00
2019-02-28T18:49:12.743Z,21.40
2019-02-28T18:51:42.799Z,27.67
2019-02-28T18:54:12.604Z,21.70
2019-02-28T18:56:42.510Z,23.00
2019-02-28T18:59:12.394Z,20.30
2019-02-28T19:01:42.324Z,22.20
2019-02-28T19:04:12.282Z,22.60
2019-02-28T19:06:42.146Z,21.20
2019-02-28T19:09:22.617Z,18.55
2019-02-28T19:11:52.437Z,22.48
2019-02-28T19:14:22.286Z,18.98
2019-02-28T19:16:52.164Z,20.20
2019-02-28T19:19:22.074Z,21.50
2019-02-28T19:21:52.060Z,20.40
2019-02-28T19:24:21.922Z,21.73
2019-02-28T19:26:51.890Z,19.27
2019-02-28T19:29:21.851Z,19.70
2019-02-28T19:31:51.753Z,27.00
2019-02-28T19:34:21.570Z,22.93
2019-02-28T19:36:51.483Z,18.15
2019-02-28T19:39:21.229Z,22.07
2019-02-28T19:41:51.221Z,17.52
2019-02-28T19:44:21.056Z,19.48
2019-02-28T19:46:50.951Z,17.75
2019-02-28T19:49:20.778Z,17.12
2019-02-28T19:51:50.685Z,17.07
2019-02-28T19:54:20.622Z,19.10
2019-02-28T19:56:50.505Z,22.93
2019-02-28T19:59:20.236Z,18.98
2019-02-28T20:01:50.142Z,20.40
2019-02-28T20:04:19.978Z,18.98
2019-02-28T20:06:49.864Z,29.07
2019-02-28T20:09:19.726Z,18.25
2019-02-28T20:11:49.694Z,18.00
2019-02-28T20:14:19.598Z,22.07
2019-02-28T20:16:50.180Z,21.70
2019-02-28T20:19:20.066Z,19.05
2019-02-28T20:21:49.977Z,19.65
2019-02-28T20:24:19.807Z,19.55
2019-02-28T20:26:49.804Z,19.17
2019-02-28T20:29:19.641Z,18.90
2019-02-28T20:31:49.540Z,16.52
2019-02-28T20:34:19.433Z,17.77
2019-02-28T20:36:49.702Z,19.05
2019-02-28T20:39:19.508Z,19.62
2019-02-28T20:41:49.406Z,17.23
2019-02-28T20:44:19.352Z,31.23
2019-02-28T20:46:49.135Z,21.35
2019-02-28T20:49:19.049Z,22.93
2019-02-28T20:51:55.216Z,20.25
2019-02-28T20:54:20.447Z,21.45
2019-02-28T20:56:50.314Z,21.87
2019-02-28T20:59:20.062Z,26.12
2019-02-28T21:01:49.842Z,20.57
2019-02-28T21:04:19.588Z,16.93
2019-02-28T21:06:49.478Z,21.10
2019-02-28T21:09:20.111Z,21.62
2019-02-28T21:11:49.930Z,19.42
2019-02-28T21:14:19.706Z,18.80
2019-02-28T21:16:49.636Z,19.02
2019-02-28T21:19:19.458Z,23.35
2019-02-28T21:21:49.427Z,15.23
2019-02-28T21:24:19.196Z,18.85
2019-02-28T21:26:49.246Z,19.52
2019-02-28T21:29:19.290Z,15.58
2019-02-28T21:31:49.145Z,19.40
2019-02-28T21:34:19.170Z,19.35
2019-02-28T21:36:49.270Z,15.75
2019-02-28T21:39:19.093Z,18.82
2019-02-28T21:41:49.016Z,18.30
2019-02-28T21:44:18.832Z,15.32
2019-02-28T21:46:48.844Z,20.43
2019-02-28T21:49:18.562Z,16.00
2019-02-28T21:51:48.373Z,16.95
2019-02-28T21:54:18.172Z,16.23
2019-02-28T21:56:47.988Z,15.98
2019-02-28T21:59:17.713Z,23.95
2019-02-28T22:01:47.610Z,18.00
2019-02-28T22:04:17.450Z,15.43
2019-02-28T22:06:47.356Z,15.00
2019-02-28T22:09:17.251Z,15.90
2019-02-28T22:11:47.004Z,16.80
2019-02-28T22:14:16.876Z,15.53
2019-02-28T22:16:46.641Z,15.65
2019-02-28T22:19:16.510Z,14.23
2019-02-28T22:21:46.352Z,16.60
2019-02-28T22:24:16.249Z,15.85
2019-02-28T22:26:46.250Z,14.87
2019-02-28T22:29:16.075Z,15.68
2019-02-28T22:32:03.619Z,16.15
2019-02-28T22:34:40.883Z,17.95
2019-02-28T22:37:10.750Z,20.43
2019-02-28T22:39:40.618Z,14.47
2019-02-28T22:42:21.414Z,16.87
2019-02-28T22:44:41.920Z,17.00
2019-02-28T22:47:11.819Z,16.52
2019-02-28T22:49:41.730Z,16.77
2019-02-28T22:52:11.621Z,15.43
2019-02-28T22:54:41.592Z,17.15
2019-02-28T22:57:11.456Z,16.27
2019-02-28T22:59:41.208Z,15.93
2019-02-28T23:02:11.096Z,16.75
2019-02-28T23:04:40.821Z,21.95
2019-02-28T23:07:10.728Z,16.45
2019-02-28T23:09:40.563Z,18.27
2019-02-28T23:12:10.458Z,17.90
2019-02-28T23:14:40.468Z,14.53
2019-02-28T23:17:08.901Z,18.60
2019-02-28T23:19:38.822Z,18.07
2019-02-28T23:22:08.587Z,17.35
2019-02-28T23:24:38.488Z,17.10
2019-02-28T23:27:20.796Z,16.65
2019-02-28T23:30:14.276Z,16.12
2019-02-28T23:32:54.284Z,17.07
2019-02-28T23:35:28.840Z,16.80
2019-02-28T23:37:58.658Z,15.63
2019-02-28T23:40:28.560Z,18.30
2019-02-28T23:42:58.377Z,14.85
2019-02-28T23:45:28.212Z,16.52
2019-02-28T23:47:58.022Z,13.40
2019-02-28T23:50:27.937Z,16.17
2019-02-28T23:52:57.752Z,15.08
2019-02-28T23:55:27.670Z,13.83
2019-02-28T23:57:57.497Z,15.72
